createdAt,value
2022-09-01T00:00:04.212Z,98421.09
2022-09-01T00:02:52.167Z,98415.63
2022-09-01T00:05:20.425Z,98419.41
2022-09-01T00:07:48.557Z,98422.50
2022-09-01T00:10:16.897Z,98414.53
2022-09-01T00:12:46.402Z,98419.84
2022-09-01T00:15:15.169Z,98418.97
2022-09-01T00:17:43.136Z,98419.69
2022-09-01T00:20:12.895Z,98408.97
2022-09-01T00:22:42.257Z,98407.94
2022-09-01T00:25:10.620Z,98414.72
2022-09-01T00:27:38.637Z,98420.13
2022-09-01T00:30:09.325Z,98414.63
2022-09-01T00:32:37.538Z,98420.75
2022-09-01T00:35:06.681Z,98415.97
2022-09-01T00:37:34.440Z,98411.47
2022-09-01T00:40:02.425Z,98409.31
2022-09-01T00:42:30.856Z,98413.19
2022-09-01T00:44:58.653Z,98410.19
2022-09-01T00:47:28.979Z,98402.84
2022-09-01T00:49:57.141Z,98412.56
2022-09-01T00:52:31.969Z,98405.75
2022-09-01T00:55:08.704Z,98400.88
2022-09-01T00:57:36.866Z,98404.31
2022-09-01T01:00:12.605Z,98407.63
2022-09-01T01:02:44.854Z,98400.59
2022-09-01T01:05:15.665Z,98407.22
2022-09-01T01:07:47.585Z,98403.84
2022-09-01T01:10:19.393Z,98413.63
2022-09-01T01:12:49.645Z,98401.91
2022-09-01T01:15:17.878Z,98395.91
2022-09-01T01:17:47.110Z,98395.91
2022-09-01T01:20:37.184Z,98396.69
2022-09-01T01:23:15.939Z,98404.19
2022-09-01T01:25:48.602Z,98395.41
2022-09-01T01:28:19.908Z,98400.25
2022-09-01T01:30:52.375Z,98406.53
2022-09-01T01:33:22.543Z,98397.78
2022-09-01T01:35:52.105Z,98396.28
2022-09-01T01:38:22.776Z,98403.34
2022-09-01T01:40:55.677Z,98397.09
2022-09-01T01:43:24.132Z,98396.13
2022-09-01T01:45:54.872Z,98390.09
2022-09-01T01:48:24.547Z,98399.56
2022-09-01T01:50:54.697Z,98390.69
2022-09-01T01:53:23.302Z,98391.38
2022-09-01T01:55:52.988Z,98388.19
2022-09-01T01:58:22.734Z,98384.44
2022-09-01T02:00:51.619Z,98389.31
2022-09-01T02:03:22.043Z,98387.03
2022-09-01T02:05:52.088Z,98392.28
2022-09-01T02:08:21.882Z,98399.13
2022-09-01T02:10:53.354Z,98384.81
2022-09-01T02:13:25.130Z,98397.53
2022-09-01T02:15:56.441Z,98394.81
2022-09-01T02:18:27.475Z,98394.44
2022-09-01T02:20:59.032Z,98394.56
2022-09-01T02:23:27.959Z,98390.25
2022-09-01T02:26:18.039Z,98391.63
2022-09-01T02:28:54.364Z,98387.31
2022-09-01T02:31:24.230Z,98394.38
2022-09-01T02:33:54.398Z,98400.63
2022-09-01T02:36:25.111Z,98392.41
2022-09-01T02:38:56.549Z,98398.66
2022-09-01T02:41:29.247Z,98395.63
2022-09-01T02:44:02.383Z,98401.19
2022-09-01T02:46:30.925Z,98397.50
2022-09-01T02:49:00.470Z,98394.56
2022-09-01T02:51:28.552Z,98399.56
2022-09-01T02:53:56.324Z,98400.44
2022-09-01T02:56:27.614Z,98403.28
2022-09-01T02:58:55.678Z,98405.22
2022-09-01T03:01:27.147Z,98388.84
2022-09-01T03:03:59.805Z,98400.91
2022-09-01T03:06:28.361Z,98391.91
2022-09-01T03:08:59.035Z,98393.38
2022-09-01T03:11:32.554Z,98394.88
2022-09-01T03:14:00.523Z,98397.59
2022-09-01T03:16:30.275Z,98389.31
2022-09-01T03:18:58.979Z,98387.50
2022-09-01T03:21:27.808Z,98367.75
2022-09-01T03:23:58.081Z,98380.72
2022-09-01T03:26:26.474Z,98383.88
2022-09-01T03:28:56.093Z,98385.25
2022-09-01T03:31:27.573Z,98387.56
2022-09-01T03:34:00.545Z,98381.16
2022-09-01T03:36:30.052Z,98386.63
2022-09-01T03:38:58.253Z,98383.44
2022-09-01T03:41:30.786Z,98388.88
2022-09-01T03:44:00.864Z,98387.44
2022-09-01T03:46:36.449Z,98385.50
2022-09-01T03:49:07.268Z,98383.66
2022-09-01T03:51:39.036Z,98382.09
2022-09-01T03:54:07.325Z,98384.34
2022-09-01T03:56:35.125Z,98381.97
2022-09-01T03:59:05.024Z,98385.03
2022-09-01T04:01:41.517Z,98389.34
2022-09-01T04:04:09.611Z,98395.28
2022-09-01T04:06:38.202Z,98390.59
2022-09-01T04:09:06.267Z,98392.31
2022-09-01T04:11:35.112Z,98390.16
2022-09-01T04:14:04.634Z,98398.56
2022-09-01T04:16:52.299Z,98393.22
2022-09-01T04:19:25.633Z,98385.25
2022-09-01T04:21:55.770Z,98391.63
2022-09-01T04:24:28.293Z,98399.13
2022-09-01T04:26:58.639Z,98406.44
2022-09-01T04:29:29.587Z,98403.69
2022-09-01T04:32:02.104Z,98397.78
2022-09-01T04:34:37.412Z,98392.91
2022-09-01T04:37:09.215Z,98403.94
2022-09-01T04:39:39.156Z,98405.50
2022-09-01T04:42:09.147Z,98405.50
2022-09-01T04:44:40.018Z,98402.34
2022-09-01T04:47:12.187Z,98406.66
2022-09-01T04:49:39.969Z,98408.56
2022-09-01T04:52:07.949Z,98404.81
2022-09-01T04:54:38.650Z,98407.44
2022-09-01T04:57:07.412Z,98403.22
2022-09-01T04:59:35.902Z,98400.97
2022-09-01T05:02:07.888Z,98410.75
2022-09-01T05:04:36.947Z,98406.84
2022-09-01T05:07:06.345Z,98408.91
2022-09-01T05:09:36.534Z,98409.16
2022-09-01T05:12:12.414Z,98402.66
2022-09-01T05:14:48.347Z,98415.50
2022-09-01T05:17:18.607Z,98411.03
2022-09-01T05:19:50.748Z,98414.69
2022-09-01T05:22:21.921Z,98416.84
2022-09-01T05:24:55.192Z,98413.84
2022-09-01T05:27:23.971Z,98418.66
2022-09-01T05:29:54.206Z,98407.13
2022-09-01T05:32:25.955Z,98413.81
2022-09-01T05:34:54.041Z,98413.13
2022-09-01T05:37:21.840Z,98419.41
2022-09-01T05:39:50.199Z,98418.72
2022-09-01T05:42:18.379Z,98416.75
2022-09-01T05:44:47.979Z,98421.69
2022-09-01T05:47:22.203Z,98409.03
2022-09-01T05:49:53.507Z,98414.00
2022-09-01T05:52:26.031Z,98409.22
2022-09-01T05:54:54.127Z,98411.97
2022-09-01T05:57:34.233Z,98420.03
2022-09-01T06:00:11.998Z,98423.03
2022-09-01T06:02:43.971Z,98425.06
2022-09-01T06:05:15.387Z,98428.59
2022-09-01T06:07:44.271Z,98426.72
2022-09-01T06:10:14.752Z,98434.06
2022-09-01T06:12:45.247Z,98428.41
2022-09-01T06:15:18.540Z,98437.66
2022-09-01T06:17:47.078Z,98429.13
2022-09-01T06:20:18.850Z,98439.63
2022-09-01T06:22:47.720Z,98438.31
2022-09-01T06:25:17.348Z,98435.19
2022-09-01T06:27:45.925Z,98448.78
2022-09-01T06:30:20.158Z,98441.59
2022-09-01T06:32:51.435Z,98437.56
2022-09-01T06:35:21.642Z,98447.97
2022-09-01T06:37:49.470Z,98440.19
2022-09-01T06:40:18.142Z,98444.63
2022-09-01T06:42:48.418Z,98449.13
2022-09-01T06:45:17.588Z,98447.81
2022-09-01T06:47:47.181Z,98451.94
2022-09-01T06:55:59.276Z,98456.75
2022-09-01T06:58:27.626Z,98449.25
2022-09-01T07:00:55.409Z,98441.63
2022-09-01T07:03:25.061Z,98462.69
2022-09-01T07:06:09.623Z,98452.53
2022-09-01T07:14:21.150Z,98455.53
2022-09-01T07:16:53.269Z,98454.13
2022-09-01T07:19:54.664Z,98456.00
2022-09-01T07:23:03.387Z,98455.19
2022-09-01T07:25:13.022Z,98449.94
2022-09-01T07:27:49.301Z,98457.00
2022-09-01T07:30:19.012Z,98454.47
2022-09-01T07:32:53.031Z,98458.19
2022-09-01T07:35:23.821Z,98445.47
2022-09-01T07:43:34.023Z,98464.00
2022-09-01T07:49:28.740Z,98449.16
2022-09-01T07:51:45.425Z,98455.75
2022-09-01T07:54:13.864Z,98458.47
2022-09-01T07:56:44.468Z,98457.41
2022-09-01T07:59:15.516Z,98449.50
2022-09-01T08:01:43.913Z,98454.66
2022-09-01T08:04:12.026Z,98455.91
2022-09-01T08:06:40.986Z,98460.63
2022-09-01T08:09:11.988Z,98457.88
2022-09-01T08:12:03.182Z,98456.94
2022-09-01T08:14:35.373Z,98465.41
2022-09-01T08:19:53.442Z,98455.38
2022-09-01T08:22:24.293Z,98460.91
2022-09-01T08:24:52.898Z,98463.56
2022-09-01T08:27:22.353Z,98469.56
2022-09-01T08:29:50.581Z,98472.00
2022-09-01T08:32:20.497Z,98467.72
2022-09-01T08:34:48.317Z,98461.13
2022-09-01T08:37:16.457Z,98459.34
2022-09-01T08:39:44.394Z,98454.63
2022-09-01T08:42:20.541Z,98468.41
2022-09-01T08:44:58.657Z,98469.72
2022-09-01T08:47:35.535Z,98469.34
2022-09-01T08:50:09.067Z,98467.09
2022-09-01T08:52:41.274Z,98468.28
2022-09-01T08:55:15.401Z,98473.81
2022-09-01T08:57:45.951Z,98468.69
2022-09-01T09:00:20.004Z,98477.41
2022-09-01T09:03:00.179Z,98476.19
2022-09-01T09:05:40.018Z,98468.31
2022-09-01T09:08:26.638Z,98474.56
2022-09-01T09:11:05.344Z,98465.09
2022-09-01T09:13:48.314Z,98464.25
2022-09-01T09:16:22.648Z,98469.13
2022-09-01T09:18:55.887Z,98463.16
2022-09-01T09:21:27.865Z,98460.78
2022-09-01T09:24:01.693Z,98453.41
2022-09-01T09:26:42.114Z,98462.56
2022-09-01T09:29:10.809Z,98460.38
2022-09-01T09:31:45.955Z,98464.25
2022-09-01T09:34:19.374Z,98464.22
2022-09-01T09:36:53.876Z,98447.88
2022-09-01T09:39:23.341Z,98456.13
2022-09-01T09:42:08.993Z,98449.09
2022-09-01T09:44:44.632Z,98452.75
2022-09-01T09:47:46.570Z,98455.00
2022-09-01T09:50:26.565Z,98449.88
2022-09-01T09:53:12.910Z,98444.50
2022-09-01T09:55:56.229Z,98450.13
2022-09-01T09:58:27.457Z,98448.09
2022-09-01T10:01:04.105Z,98444.63
2022-09-01T10:03:42.190Z,98440.44
2022-09-01T10:06:13.340Z,98448.34
2022-09-01T10:08:48.026Z,98449.50
2022-09-01T10:11:35.543Z,98453.31
2022-09-01T10:14:08.124Z,98445.22
2022-09-01T10:16:38.605Z,98445.03
2022-09-01T10:19:13.341Z,98438.94
2022-09-01T10:21:47.136Z,98439.00
2022-09-01T10:24:25.855Z,98441.22
2022-09-01T10:26:58.439Z,98440.94
2022-09-01T10:29:34.861Z,98444.63
2022-09-01T10:32:30.680Z,98443.34
2022-09-01T10:34:59.673Z,98442.06
2022-09-01T10:37:28.617Z,98440.03
2022-09-01T10:40:21.505Z,98437.19
2022-09-01T10:42:57.318Z,98443.28
2022-09-01T10:45:34.098Z,98446.16
2022-09-01T10:48:32.087Z,98444.19
2022-09-01T10:51:39.135Z,98443.50
2022-09-01T10:54:55.584Z,98437.22
2022-09-01T10:57:46.033Z,98436.06
2022-09-01T11:04:02.414Z,98428.81
2022-09-01T11:07:17.172Z,98427.41
2022-09-01T11:10:31.833Z,98430.94
2022-09-01T11:13:21.435Z,98433.63
2022-09-01T11:15:50.290Z,98428.63
2022-09-01T11:18:26.092Z,98428.34
2022-09-01T11:20:57.768Z,98434.34
2022-09-01T11:23:30.364Z,98427.97
2022-09-01T11:28:49.741Z,98422.00
2022-09-01T11:31:34.024Z,98415.72
2022-09-01T11:34:12.979Z,98414.44
2022-09-01T11:36:54.248Z,98417.16
2022-09-01T11:39:32.460Z,98412.72
2022-09-01T11:42:04.374Z,98411.63
2022-09-01T11:44:42.516Z,98409.53
2022-09-01T11:47:16.565Z,98416.13
2022-09-01T11:49:53.032Z,98423.63
2022-09-01T11:52:24.213Z,98427.72
2022-09-01T11:54:52.688Z,98416.91
2022-09-01T11:57:23.490Z,98415.66
2022-09-01T11:59:53.713Z,98413.22
2022-09-01T12:02:25.247Z,98416.50
2022-09-01T12:04:56.124Z,98418.03
2022-09-01T12:07:36.582Z,98408.22
2022-09-01T12:10:05.088Z,98408.50
2022-09-01T12:12:36.529Z,98407.66
2022-09-01T12:15:10.699Z,98405.00
2022-09-01T12:17:41.973Z,98411.34
2022-09-01T12:20:30.010Z,98406.91
2022-09-01T12:22:59.819Z,98410.97
2022-09-01T12:25:30.056Z,98407.91
2022-09-01T12:28:00.444Z,98413.72
2022-09-01T12:30:35.198Z,98411.88
2022-09-01T12:33:23.531Z,98409.97
2022-09-01T12:35:56.085Z,98401.31
2022-09-01T12:38:30.754Z,98401.31
2022-09-01T12:41:00.008Z,98394.25
2022-09-01T12:43:33.255Z,98400.53
2022-09-01T12:46:04.614Z,98395.81
2022-09-01T12:48:35.074Z,98405.19
2022-09-01T12:51:09.373Z,98395.63
2022-09-01T12:53:37.705Z,98388.41
2022-09-01T12:56:31.924Z,98388.56
2022-09-01T12:59:15.756Z,98386.88
2022-09-01T13:01:47.827Z,98389.16
2022-09-01T13:04:28.534Z,98392.22
2022-09-01T13:07:01.646Z,98396.47
2022-09-01T13:09:30.103Z,98406.28
2022-09-01T13:12:11.903Z,98397.63
2022-09-01T13:14:39.852Z,98391.69
2022-09-01T13:17:13.977Z,98389.91
2022-09-01T13:19:42.737Z,98396.31
2022-09-01T13:22:11.434Z,98391.16
2022-09-01T13:24:40.107Z,98388.41
2022-09-01T13:27:23.675Z,98384.91
2022-09-01T13:29:53.288Z,98389.63
2022-09-01T13:32:24.593Z,98386.94
2022-09-01T13:34:54.663Z,98384.97
2022-09-01T13:37:23.976Z,98386.69
2022-09-01T13:39:52.435Z,98388.25
2022-09-01T13:42:20.807Z,98392.22
2022-09-01T13:44:52.554Z,98385.91
2022-09-01T13:47:29.575Z,98381.78
2022-09-01T13:50:07.234Z,98379.44
2022-09-01T13:52:37.121Z,98381.56
2022-09-01T13:55:05.693Z,98391.56
2022-09-01T13:57:35.925Z,98395.88
2022-09-01T14:00:10.685Z,98390.28
2022-09-01T14:02:41.148Z,98390.72
2022-09-01T14:05:10.303Z,98395.22
2022-09-01T14:07:38.189Z,98397.03
2022-09-01T14:10:07.237Z,98404.13
2022-09-01T14:12:35.901Z,98407.53
2022-09-01T14:15:16.031Z,98394.13
2022-09-01T14:17:48.724Z,98401.25
2022-09-01T14:20:20.273Z,98395.69
2022-09-01T14:22:50.107Z,98387.63
2022-09-01T14:25:20.289Z,98387.56
2022-09-01T14:27:49.598Z,98386.03
2022-09-01T14:30:21.140Z,98387.56
2022-09-01T14:32:50.556Z,98390.69
2022-09-01T14:35:19.801Z,98385.69
2022-09-01T14:37:48.076Z,98385.88
2022-09-01T14:40:18.380Z,98383.66
2022-09-01T14:42:49.255Z,98389.63
2022-09-01T14:45:18.649Z,98384.63
2022-09-01T14:47:47.528Z,98392.72
2022-09-01T14:50:22.768Z,98381.31
2022-09-01T14:52:54.203Z,98389.34
2022-09-01T14:55:23.625Z,98380.56
2022-09-01T14:57:52.146Z,98385.16
2022-09-01T15:00:21.147Z,98384.84
2022-09-01T15:02:49.596Z,98383.81
2022-09-01T15:05:19.648Z,98376.91
2022-09-01T15:07:47.909Z,98377.50
2022-09-01T15:10:25.197Z,98382.47
2022-09-01T15:12:54.695Z,98383.72
2022-09-01T15:15:23.642Z,98379.94
2022-09-01T15:17:51.556Z,98386.69
2022-09-01T15:20:38.801Z,98380.03
2022-09-01T15:23:07.693Z,98387.44
2022-09-01T15:25:36.066Z,98390.50
2022-09-01T15:28:04.335Z,98389.03
2022-09-01T15:30:32.617Z,98397.09
2022-09-01T15:33:00.644Z,98389.59
2022-09-01T15:35:31.324Z,98393.72
2022-09-01T15:37:59.478Z,98387.16
2022-09-01T15:40:28.828Z,98388.94
2022-09-01T15:42:58.458Z,98397.00
2022-09-01T15:45:28.685Z,98401.88
2022-09-01T15:47:56.902Z,98386.91
2022-09-01T15:50:27.586Z,98387.59
2022-09-01T15:52:59.860Z,98395.69
2022-09-01T15:55:30.821Z,98400.72
2022-09-01T15:57:59.035Z,98398.94
2022-09-01T16:00:28.860Z,98387.13
2022-09-01T16:03:01.625Z,98391.44
2022-09-01T16:05:30.222Z,98394.50
2022-09-01T16:08:01.433Z,98389.22
2022-09-01T16:10:33.552Z,98397.47
2022-09-01T16:13:04.964Z,98375.63
2022-09-01T16:15:33.008Z,98395.56
2022-09-01T16:18:13.343Z,98391.06
2022-09-01T16:20:51.193Z,98401.25
2022-09-01T16:23:22.876Z,98395.31
2022-09-01T16:25:53.617Z,98388.44
2022-09-01T16:28:28.132Z,98401.06
2022-09-01T16:31:03.695Z,98396.28
2022-09-01T16:33:33.482Z,98404.56
2022-09-01T16:36:18.605Z,98402.53
2022-09-01T16:38:51.941Z,98402.50
2022-09-01T16:41:43.982Z,98399.41
2022-09-01T16:44:24.506Z,98402.91
2022-09-01T16:47:10.444Z,98401.78
2022-09-01T16:49:46.497Z,98405.03
2022-09-01T16:52:20.623Z,98407.03
2022-09-01T16:55:00.474Z,98398.75
2022-09-01T16:57:39.039Z,98411.28
2022-09-01T17:00:11.109Z,98408.47
2022-09-01T17:02:50.133Z,98407.91
2022-09-01T17:05:25.690Z,98412.56
2022-09-01T17:08:06.873Z,98416.13
2022-09-01T17:10:43.171Z,98421.63
2022-09-01T17:13:20.351Z,98420.53
2022-09-01T17:15:56.253Z,98427.19
2022-09-01T17:18:33.277Z,98416.53
2022-09-01T17:21:08.621Z,98419.28
2022-09-01T17:23:41.796Z,98424.34
2022-09-01T17:26:18.548Z,98436.13
2022-09-01T17:28:55.128Z,98428.88
2022-09-01T17:31:50.821Z,98423.22
2022-09-01T17:34:31.335Z,98425.88
2022-09-01T17:37:10.814Z,98432.63
2022-09-01T17:39:49.292Z,98425.53
2022-09-01T17:42:27.792Z,98420.03
2022-09-01T17:44:58.724Z,98429.44
2022-09-01T17:47:37.040Z,98422.28
2022-09-01T17:50:14.038Z,98431.63
2022-09-01T17:53:02.429Z,98433.94
2022-09-01T17:55:46.522Z,98430.69
2022-09-01T17:58:28.762Z,98440.88
2022-09-01T18:01:04.630Z,98441.47
2022-09-01T18:04:13.994Z,98452.69
2022-09-01T18:06:50.209Z,98458.38
2022-09-01T18:09:21.520Z,98458.38
2022-09-01T18:11:54.769Z,98459.09
2022-09-01T18:14:31.821Z,98452.53
2022-09-01T18:17:05.305Z,98458.91
2022-09-01T18:19:38.003Z,98469.84
2022-09-01T18:22:09.404Z,98466.66
2022-09-01T18:24:48.478Z,98472.59
2022-09-01T18:27:16.605Z,98472.09
2022-09-01T18:29:47.919Z,98475.22
2022-09-01T18:32:29.489Z,98473.69
2022-09-01T18:35:17.261Z,98475.69
2022-09-01T18:37:58.320Z,98471.84
2022-09-01T18:40:30.354Z,98466.34
2022-09-01T18:43:20.467Z,98473.44
2022-09-01T18:45:56.859Z,98464.59
2022-09-01T18:51:11.890Z,98473.47
2022-09-01T18:53:47.406Z,98474.63
2022-09-01T18:56:28.333Z,98472.75
2022-09-01T18:59:14.705Z,98472.75
2022-09-01T19:01:55.013Z,98483.31
2022-09-01T19:04:29.109Z,98485.41
2022-09-01T19:07:08.972Z,98480.59
2022-09-01T19:09:43.615Z,98490.72
2022-09-01T19:12:25.984Z,98483.53
2022-09-01T19:15:05.480Z,98479.50
2022-09-01T19:18:04.805Z,98491.25
2022-09-01T19:20:42.064Z,98487.22
2022-09-01T19:23:15.220Z,98490.50
2022-09-01T19:25:43.882Z,98496.59
2022-09-01T19:28:17.858Z,98494.88
2022-09-01T19:30:51.342Z,98494.00
2022-09-01T19:33:25.605Z,98500.66
2022-09-01T19:35:58.401Z,98498.19
2022-09-01T19:38:28.987Z,98497.31
2022-09-01T19:41:04.922Z,98493.28
2022-09-01T19:43:37.875Z,98500.44
2022-09-01T19:46:16.915Z,98503.50
2022-09-01T19:48:52.202Z,98510.44
2022-09-01T19:51:25.574Z,98507.19
2022-09-01T19:54:01.180Z,98499.00
2022-09-01T19:56:35.285Z,98509.06
2022-09-01T19:59:13.965Z,98506.97
2022-09-01T20:01:47.465Z,98514.41
2022-09-01T20:04:27.755Z,98502.53
2022-09-01T20:07:00.311Z,98513.50
2022-09-01T20:09:36.581Z,98521.28
2022-09-01T20:12:14.376Z,98516.59
2022-09-01T20:14:57.325Z,98521.28
2022-09-01T20:17:30.457Z,98523.16
2022-09-01T20:20:07.587Z,98524.28
2022-09-01T20:22:55.036Z,98520.59
2022-09-01T20:25:26.180Z,98524.63
2022-09-01T20:28:02.581Z,98526.03
2022-09-01T20:30:39.738Z,98526.13
2022-09-01T20:33:16.007Z,98530.25
2022-09-01T20:35:50.181Z,98520.72
2022-09-01T20:38:42.821Z,98522.22
2022-09-01T20:41:15.072Z,98528.75
2022-09-01T20:43:47.511Z,98531.38
2022-09-01T20:46:18.328Z,98537.47
2022-09-01T20:48:48.036Z,98530.31
2022-09-01T20:51:27.605Z,98518.53
2022-09-01T20:54:06.752Z,98531.44
2022-09-01T20:56:45.510Z,98523.59
2022-09-01T20:59:23.067Z,98524.53
2022-09-01T21:01:59.153Z,98528.91
2022-09-01T21:04:38.996Z,98525.59
2022-09-01T21:07:15.692Z,98545.00
2022-09-01T21:09:55.287Z,98540.78
2022-09-01T21:12:31.762Z,98535.22
2022-09-01T21:15:12.055Z,98541.81
2022-09-01T21:17:45.874Z,98537.00
2022-09-01T21:20:23.034Z,98541.59
2022-09-01T21:22:52.730Z,98540.44
2022-09-01T21:25:21.061Z,98538.59
2022-09-01T21:27:55.502Z,98534.84
2022-09-01T21:30:25.795Z,98542.16
2022-09-01T21:32:54.380Z,98540.91
2022-09-01T21:35:23.013Z,98539.75
2022-09-01T21:37:53.149Z,98551.50
2022-09-01T21:40:24.169Z,98554.59
2022-09-01T21:42:56.176Z,98554.59
2022-09-01T21:45:24.580Z,98557.06
2022-09-01T21:47:53.832Z,98561.97
2022-09-01T21:50:24.407Z,98558.44
2022-09-01T21:52:53.802Z,98554.31
2022-09-01T21:55:23.319Z,98545.56
2022-09-01T21:57:51.857Z,98553.41
2022-09-01T22:00:22.703Z,98545.00
2022-09-01T22:02:51.310Z,98545.44
2022-09-01T22:05:19.498Z,98544.75
2022-09-01T22:07:48.284Z,98548.06
2022-09-01T22:10:20.979Z,98547.03
2022-09-01T22:12:51.104Z,98544.97
2022-09-01T22:15:21.386Z,98547.00
2022-09-01T22:17:49.604Z,98533.41
2022-09-01T22:20:22.284Z,98534.44
2022-09-01T22:22:50.703Z,98540.28
2022-09-01T22:25:23.795Z,98533.91
2022-09-01T22:27:51.909Z,98534.56
2022-09-01T22:30:20.108Z,98538.97
2022-09-01T22:32:48.285Z,98539.66
2022-09-01T22:35:18.201Z,98541.38
2022-09-01T22:37:46.369Z,98538.19
2022-09-01T22:40:16.448Z,98535.66
2022-09-01T22:42:46.053Z,98538.44
2022-09-01T22:45:15.845Z,98525.16
2022-09-01T22:47:43.879Z,98539.53
2022-09-01T22:50:12.253Z,98529.53
2022-09-01T22:52:40.737Z,98533.88
2022-09-01T22:55:10.182Z,98529.53
2022-09-01T22:57:38.729Z,98533.19
2022-09-01T23:00:11.152Z,98528.75
2022-09-01T23:02:39.169Z,98526.59
2022-09-01T23:05:08.367Z,98532.19
2022-09-01T23:07:39.767Z,98527.50
2022-09-01T23:10:09.322Z,98520.88
2022-09-01T23:12:37.387Z,98523.56
2022-09-01T23:15:06.576Z,98529.00
2022-09-01T23:17:37.886Z,98521.66
2022-09-01T23:20:08.990Z,98534.31
2022-09-01T23:22:37.035Z,98527.25
2022-09-01T23:25:05.473Z,98531.63
2022-09-01T23:27:33.662Z,98529.00
2022-09-01T23:30:01.838Z,98530.97
2022-09-01T23:32:30.118Z,98529.84
2022-09-01T23:34:59.821Z,98528.44
2022-09-01T23:37:27.931Z,98529.75
2022-09-01T23:39:56.755Z,98524.47
2022-09-01T23:42:25.491Z,98527.69
2022-09-01T23:44:53.418Z,98524.94
2022-09-01T23:47:21.265Z,98521.59
2022-09-01T23:49:49.226Z,98526.66
2022-09-01T23:52:18.846Z,98522.91
2022-09-01T23:54:46.609Z,98513.88
2022-09-01T23:57:14.594Z,98515.28
2022-09-01T23:59:42.439Z,98507.69
